METAR Data
IDs: Format: Raw Decoded Include TAF

Data at: 1244 UTC 16 Oct 2018

PAUN 161156Z AUTO 07017G24KT 10SM -RA FEW036 OVC049 03/00 A2924 RMK AO2 PK WND 08026/1103 RAB15 SLP907 P0000 60000 T00330000 10056 20033 56008
PAUN 161056Z AUTO 08023G26KT 10SM OVC046 04/M01 A2925 RMK AO2 PK WND 08026/1056 RAE14 SLP910 P0000 T00441006
PAUN 160956Z AUTO 08011KT 10SM -RA OVC055 04/M01 A2925 RMK AO2 PK WND 07026/0919 RAB04 SLP910 P0000 T00391006
PAUN 160856Z AUTO 07018KT 10SM SCT070 OVC095 06/M02 A2927 RMK AO2 SLP915 T00561022 400670039 56012
PAUN 160756Z AUTO 07013KT 10SM OVC080 06/M02 A2927 RMK AO2 PK WND 07027/0720 SLP917 T00561022
PAUN 160656Z AUTO 07021G26KT 10SM OVC070 05/M02 A2929 RMK AO2 PK WND 07026/0655 SLP922 T00501022
PAUN 160556Z AUTO 07021G27KT 10SM OVC080 05/M02 A2930 RMK AO2 PK WND 07027/0554 SLP927 T00501022 10067 20050 58009
PAUN 160456Z AUTO 07016G21KT 10SM OVC085 05/M02 A2932 RMK AO2 PK WND 09028/0401 SLP934 T00501017
PAUN 160356Z AUTO 08024G31KT 10SM SCT080 OVC100 05/M02 A2932 RMK AO2 PK WND 08035/0318 SLP934 T00501017
PAUN 160256Z AUTO 07023G32KT 10SM SCT100 05/M02 A2933 RMK AO2 PK WND 07035/0200 SLP936 T00501017 58027
PAUN 160156Z AUTO 08026G32KT 10SM FEW120 05/M01 A2937 RMK AO2 PK WND 07036/0132 SLP948 T00501011
PAUN 160056Z AUTO 07027G33KT 10SM SCT110 06/M01 A2939 RMK AO2 PK WND 07037/0043 SLP956 T00611011
PAUN 152356Z AUTO 08028G36KT 10SM CLR 06/M01 A2941 RMK AO2 PK WND 08036/2350 SLP963 60000 T00561011 10056 20044 58030
PAUN 152256Z AUTO 07029G34KT 10SM BKN060 OVC070 06/M01 A2944 RMK AO2 PK WND 07034/2255 RAE03B23E43 SLP973 P0000 T00561011
PAUN 152156Z AUTO 07023G29KT 10SM -RA FEW060 05/00 A2947 RMK AO2 PK WND 06033/2143 RAB11 SLP984 P0000 T00500000
PAUN 152056Z AUTO 07026G32KT 10SM CLR 04/M01 A2950 RMK AO2 PK WND 07032/2053 SLP993 T00441011 58013
PAUN 151956Z AUTO 08022G26KT 10SM CLR 05/M01 A2953 RMK AO2 PK WND 08026/1955 SLP005 T00501006
PAUN 151856Z AUTO 08020G27KT 10SM CLR 04/M01 A2953 RMK AO2 PK WND 08033/1818 SLP005 T00441006
PAUN 151756Z AUTO 08020G30KT 10SM CLR 05/M01 A2954 RMK AO2 PK WND 07034/1720 SLP006 T00501006 10056 20044 58003
PAUN 151656Z AUTO 07025G33KT 10SM CLR 05/00 A2955 RMK AO2 PK WND 07033/1651 SLP009 T00500000
PAUN 151556Z AUTO 08021G27KT 10SM CLR 05/00 A2957 RMK AO2 PK WND 07031/1506 SLP016 T00500000
PAUN 151456Z AUTO 07022G31KT 10SM CLR 05/01 A2955 RMK AO2 PK WND 07035/1400 SLP010 T00500006 56029
PAUN 151356Z AUTO 07026G31KT 10SM CLR 05/01 A2957 RMK AO2 PK WND 08032/1339 SLP019 T00500006
PAUN 151256Z AUTO 08023G29KT 10SM FEW110 05/01 A2959 RMK AO2 PK WND 06034/1225 SLP025 T00500011
PAUN 151156Z AUTO 07021G26KT 10SM CLR 05/01 A2963 RMK AO2 PK WND 07027/1126 SLP039 T00500011 10050 20039 58019
PAUN 151056Z AUTO 08019KT 10SM CLR 04/02 A2965 RMK AO2 SLP046 T00440017
PAUN 150956Z AUTO 07018G23KT 10SM CLR 04/02 A2967 RMK AO2 SLP051 T00390017
PAUN 150856Z AUTO 07016KT 10SM CLR 04/02 A2969 RMK AO2 SLP057 T00390017 400720039 56008
PAUN 150756Z AUTO 08011KT 10SM CLR 04/02 A2969 RMK AO2 SLP060 T00390022
PAUN 150656Z AUTO 07015KT 10SM CLR 04/02 A2970 RMK AO2 SLP062 T00390022
PAUN 150556Z AUTO 07015KT 10SM CLR 04/02 A2971 RMK AO2 SLP066 T00440022 10072 20039 58000
PAUN 150456Z AUTO 08010KT 10SM CLR 04/02 A2972 RMK AO2 SLP067 T00390022
PAUN 150356Z AUTO 08013KT 10SM CLR 05/02 A2971 RMK AO2 SLP065 T00500022
PAUN 150256Z AUTO 06012KT 10SM CLR 06/03 A2971 RMK AO2 SLP066 T00610028 56013
PAUN 150156Z AUTO 08016KT 10SM CLR 07/03 A2973 RMK AO2 SLP071 T00670028
PAUN 150056Z AUTO 09015KT 10SM CLR 07/03 A2973 RMK AO2 SLP073 T00720028